Time;durP1;ratioP1;P1;durP2;ratioP2;P2;SDS_P1;SDS_P2;PMS_P1;PMS_P2;Temp;Humidity;BMP_temperature;BMP_pressure;BME280_temperature;BME280_humidity;BME280_pressure;Samples;Min_cycle;Max_cycle;Signal;HPM_P1;HPM_P2
2023/02/23 00:03:09;;;;;;;22.00;9.00;;;;;;;2.42;65.43;100856.41;672752;1261;138558;-84
2023/02/23 00:18:13;;;;;;;21.00;8.00;;;;;;;2.38;65.67;100849.65;671033;1259;139244;-84
2023/02/23 00:33:17;;;;;;;15.00;7.40;;;;;;;2.39;65.88;100846.52;669964;1264;138433;-85
2023/02/23 00:48:21;;;;;;;23.90;9.20;;;;;;;2.40;65.35;100836.30;671054;1263;138949;-84
2023/02/23 01:03:25;;;;;;;38.60;14.70;;;;;;;2.26;65.21;100828.46;670471;1264;137765;-85
2023/02/23 01:18:28;;;;;;;20.00;8.80;;;;;;;2.21;65.44;100819.88;670052;1259;139569;-85
2023/02/23 01:33:32;;;;;;;18.10;7.40;;;;;;;2.11;65.10;100809.63;669969;1264;138411;-86
2023/02/23 01:48:38;;;;;;;18.30;9.50;;;;;;;2.02;64.98;100808.61;670639;1276;139597;-85
2023/02/23 02:04:05;;;;;;;17.00;8.40;;;;;;;1.92;64.99;100797.66;669968;1264;139254;-85
2023/02/23 02:19:47;;;;;;;15.10;8.10;;;;;;;1.86;65.20;100779.83;669839;1264;138974;-85
2023/02/23 02:35:18;;;;;;;13.00;6.90;;;;;;;1.73;65.07;100766.41;669757;1263;137946;-86
2023/02/23 02:50:49;;;;;;;11.50;7.70;;;;;;;1.62;65.60;100761.52;671200;1262;139554;-86
2023/02/23 04:20:41;;;;;;;27.80;12.40;;;;;;;1.47;67.98;100743.88;652406;1308;545210;-85
2023/02/23 04:35:47;;;;;;;25.60;12.60;;;;;;;1.41;68.15;100739.51;668459;1273;139031;-86
2023/02/23 04:50:52;;;;;;;229.10;54.50;;;;;;;1.42;67.91;100734.45;672053;1263;138604;-87
2023/02/23 05:05:55;;;;;;;233.30;58.40;;;;;;;1.39;68.30;100721.13;671724;1263;138246;-87
2023/02/23 05:21:07;;;;;;;67.00;20.40;;;;;;;1.39;68.08;100711.67;672338;1276;138986;-86
2023/02/23 05:36:13;;;;;;;118.10;38.10;;;;;;;1.31;68.16;100703.89;672162;1263;139076;-86
2023/02/23 05:51:17;;;;;;;68.00;21.60;;;;;;;1.23;68.09;100701.80;671845;1264;138795;-86
2023/02/23 06:06:22;;;;;;;78.40;27.40;;;;;;;1.29;67.96;100696.23;673322;1264;138566;-86
2023/02/23 06:21:26;;;;;;;32.70;12.90;;;;;;;1.32;67.70;100694.19;672092;1263;138129;-87
2023/02/23 06:36:29;;;;;;;51.10;23.60;;;;;;;1.45;67.10;100683.98;670371;1263;138743;-86
2023/02/23 06:51:33;;;;;;;37.30;14.20;;;;;;;1.65;66.85;100680.33;670526;1263;139198;-86
2023/02/23 07:06:36;;;;;;;40.40;15.50;;;;;;;1.89;66.75;100661.69;671016;1278;139699;-86
2023/02/23 07:21:40;;;;;;;73.80;26.90;;;;;;;2.08;67.02;100653.73;672744;1262;139075;-86
2023/02/23 07:36:43;;;;;;;26.90;15.70;;;;;;;2.48;66.98;100640.80;671205;1258;138498;-86
2023/02/23 07:51:47;;;;;;;103.70;47.00;;;;;;;2.88;66.72;100632.28;671138;1259;138616;-86
2023/02/23 08:06:50;;;;;;;48.80;21.90;;;;;;;3.27;66.81;100621.81;670998;1262;139591;-87
2023/02/23 08:21:55;;;;;;;99.10;26.10;;;;;;;3.84;66.25;100612.41;673333;1257;138716;-87
2023/02/23 08:36:58;;;;;;;29.30;13.50;;;;;;;3.89;65.70;100594.70;671961;1262;139095;-86
2023/02/23 08:52:03;;;;;;;24.20;12.70;;;;;;;3.95;65.59;100587.95;671415;1261;139621;-87
2023/02/23 09:07:08;;;;;;;32.60;13.30;;;;;;;4.15;65.98;100565.91;670644;1263;139079;-87
2023/02/23 09:22:12;;;;;;;108.30;94.60;;;;;;;4.52;65.52;100558.62;671313;1261;138354;-86
2023/02/23 09:37:15;;;;;;;210.40;70.40;;;;;;;4.74;64.14;100545.20;672335;1263;138051;-86
2023/02/23 09:52:24;;;;;;;63.70;32.40;;;;;;;5.08;64.03;100520.95;672851;1264;138973;-85
2023/02/23 10:07:42;;;;;;;20.70;12.20;;;;;;;5.57;63.07;100515.31;672270;1262;138609;-86
2023/02/23 10:22:48;;;;;;;30.90;14.80;;;;;;;5.77;62.13;100495.64;673083;1263;138847;-86
2023/02/23 10:37:52;;;;;;;29.20;13.70;;;;;;;6.33;60.75;100488.19;671736;1261;138423;-86
2023/02/23 10:53:10;;;;;;;25.40;14.20;;;;;;;7.38;59.76;100461.84;672598;1262;138511;-86
2023/02/23 11:08:24;;;;;;;20.60;11.90;;;;;;;8.27;57.86;100423.50;671264;1267;137954;-86
2023/02/23 11:23:33;;;;;;;30.40;18.50;;;;;;;8.36;57.50;100395.78;670604;1263;138271;-87
2023/02/23 11:38:37;;;;;;;123.10;72.90;;;;;;;8.85;56.96;100381.34;670725;1265;138312;-87
2023/02/23 11:53:45;;;;;;;17.70;11.00;;;;;;;9.65;56.23;100375.46;675172;1262;138084;-87
2023/02/23 12:08:54;;;;;;;25.30;13.50;;;;;;;10.35;56.28;100357.05;678076;1258;137219;-85
2023/02/23 12:24:36;;;;;;;41.90;20.70;;;;;;;10.17;55.99;100340.06;677725;1262;137124;-85
2023/02/23 12:39:45;;;;;;;30.90;15.60;;;;;;;10.10;56.01;100314.45;672717;1261;137861;-87
2023/02/23 12:54:48;;;;;;;24.40;12.60;;;;;;;10.83;55.88;100287.30;670064;1263;138052;-85
2023/02/23 13:10:08;;;;;;;54.00;32.60;;;;;;;11.82;55.05;100267.15;673675;1261;137108;-87
2023/02/23 13:25:29;;;;;;;22.70;12.10;;;;;;;12.14;54.80;100243.09;674479;1273;137967;-87
2023/02/23 13:40:54;;;;;;;30.60;17.30;;;;;;;12.76;54.37;100222.26;671284;1262;137835;-87
2023/02/23 13:56:00;;;;;;;23.30;12.40;;;;;;;14.01;52.59;100195.25;670723;1262;138433;-86
2023/02/23 14:11:06;;;;;;;37.50;20.10;;;;;;;13.24;52.72;100187.11;672045;1262;138014;-87
2023/02/23 14:26:34;;;;;;;45.10;22.50;;;;;;;12.33;53.40;100165.68;670355;1263;138322;-87
2023/02/23 14:42:05;;;;;;;31.90;17.50;;;;;;;10.48;55.61;100141.66;671728;1262;138566;-87
2023/02/23 14:57:23;;;;;;;39.30;23.00;;;;;;;9.91;57.63;100122.50;671916;1262;138138;-87
2023/02/23 15:12:33;;;;;;;37.30;20.20;;;;;;;9.42;59.15;100091.98;671248;1262;137895;-85
2023/02/23 15:27:41;;;;;;;43.60;22.80;;;;;;;8.73;60.72;100082.77;670908;1262;138976;-85
2023/02/23 15:42:50;;;;;;;35.60;20.90;;;;;;;8.23;62.28;100054.27;670052;1262;139298;-86
2023/02/23 15:58:14;;;;;;;49.30;19.90;;;;;;;7.87;63.58;100036.73;670544;1262;138587;-86
2023/02/23 16:13:20;;;;;;;65.70;38.10;;;;;;;7.62;64.22;100027.62;671866;1263;139172;-86
2023/02/23 16:28:29;;;;;;;97.40;37.90;;;;;;;7.36;64.87;100024.08;672107;1265;155594;-86
2023/02/23 16:43:35;;;;;;;58.70;28.70;;;;;;;7.14;66.86;100008.20;672416;1262;140652;-88
2023/02/23 16:58:41;;;;;;;64.60;26.50;;;;;;;7.06;67.83;99991.64;674253;1262;138746;-87
2023/02/23 17:13:45;;;;;;;71.40;28.10;;;;;;;7.05;68.32;99973.80;672739;1272;139315;-86
2023/02/23 17:28:50;;;;;;;46.90;22.20;;;;;;;7.03;68.97;99950.80;672188;1276;139394;-86
2023/02/23 17:43:54;;;;;;;39.00;19.50;;;;;;;7.01;69.21;99931.83;672126;1265;138750;-88
2023/02/23 17:58:57;;;;;;;35.00;17.90;;;;;;;7.07;69.26;99907.05;673244;1262;138698;-87
2023/02/23 18:14:02;;;;;;;87.50;39.70;;;;;;;7.06;70.02;99874.92;674456;1262;138409;-86
2023/02/23 18:29:06;;;;;;;33.70;16.70;;;;;;;7.03;70.98;99865.77;673569;1262;138933;-87
2023/02/23 18:44:15;;;;;;;39.30;19.30;;;;;;;6.92;73.25;99851.70;672848;1258;138723;-90
2023/02/23 18:59:19;;;;;;;40.10;19.20;;;;;;;6.93;73.35;99827.30;672871;1271;138624;-90
2023/02/23 19:14:23;;;;;;;42.30;20.10;;;;;;;6.98;73.78;99809.33;672139;1262;138521;-89
2023/02/23 19:29:47;;;;;;;38.00;19.40;;;;;;;7.02;74.33;99790.96;672214;1262;138935;-86
2023/02/23 19:44:52;;;;;;;50.10;25.70;;;;;;;7.12;74.19;99771.38;674095;1270;138291;-89
2023/02/23 19:59:56;;;;;;;46.90;22.70;;;;;;;7.07;74.68;99752.64;672951;1262;138779;-90
2023/02/23 20:15:04;;;;;;;42.90;20.50;;;;;;;7.01;75.04;99734.89;672598;1261;138372;-89
2023/02/23 20:30:12;;;;;;;67.20;33.70;;;;;;;6.96;75.46;99714.02;673935;1262;139812;-89
2023/02/23 20:45:20;;;;;;;42.80;22.10;;;;;;;7.01;75.93;99700.23;672893;1263;139569;-88
2023/02/23 21:00:27;;;;;;;38.20;21.30;;;;;;;7.14;75.47;99674.27;671847;1265;138935;-88
2023/02/23 21:15:33;;;;;;;39.30;21.10;;;;;;;7.23;75.58;99648.21;671875;1275;138206;-87
2023/02/23 21:30:37;;;;;;;50.60;25.00;;;;;;;7.18;76.26;99635.02;683252;1263;138564;-88
2023/02/23 21:45:45;;;;;;;51.90;28.00;;;;;;;7.27;76.54;99617.77;683172;1264;138111;-86
2023/02/23 22:00:49;;;;;;;49.70;23.30;;;;;;;7.22;78.39;99600.42;682756;1263;138828;-88
2023/02/23 22:15:57;;;;;;;56.50;31.90;;;;;;;7.16;81.64;99583.92;683065;1262;138130;-88
2023/02/23 22:31:03;;;;;;;;;;;;;;;7.17;84.24;99565.00;683097;1259;138157;-88
2023/02/23 22:46:08;;;;;;;59.10;29.40;;;;;;;7.11;88.86;99544.48;683307;1264;124155;-87
2023/02/23 23:01:11;;;;;;;54.40;29.40;;;;;;;7.14;91.38;99520.23;682924;1257;138014;-86
2023/02/23 23:16:18;;;;;;;64.50;34.20;;;;;;;7.22;91.43;99500.25;683074;1264;138350;-86
2023/02/23 23:31:34;;;;;;;62.50;32.90;;;;;;;7.25;93.62;99480.55;682919;1262;138287;-86
2023/02/23 23:46:41;;;;;;;68.60;34.50;;;;;;;7.29;95.01;99456.02;683245;1273;138817;-86
